Terminal Aerodrome Forecast
Issued by NWS

Home | Current Version | Previous Version | Graphics & Text | Print | Product List | Glossary On
Versions: 1 2 3 4 5 6 7 8 9 10 11 12 13 14 15 16 17 18 19
000
FTUS43 KGRB 150500
TAFCWA
TAF
KCWA 150520Z 1506/1606 35005KT P6SM FEW050
     FM151500 29009G15KT P6SM BKN040
     FM152100 26008G14KT P6SM SCT050
     FM160100 VRB03KT P6SM SCT060 BKN200
     FM160400 13004KT P6SM BKN150
      AMD LTD TO CLD VIS AND WIND TIL 151200=

USA.gov is the U.S. government's official web portal to all federal, state and local government web resources and services.